CheckWX is a tool to help pilots better visualize weather data.  It is not intended as a substitute for an official pre-flight weather briefing.

12:36:12 UTC

HCMM METAR
Aden Adde International Airport
Mogadishu
Current

36 mins ago

HCMM 221200Z 07018KT CAVOK 30/22 Q1007
Observed
Feb-22 @ 12:00 UTC
Wind
  • 070° at 18 KTS
Visibility
10,000+ meters
Flight Rules
VFR
Cloud Levels
  • Clear skies
Temperature
30°C / 86°F
Dewpoint
22°C / 72°F
Humidity
62%
Altimeter
29.73" Hg
Pressure
1006.92 hPa
Previous

2 hours ago

HCMM 221100Z 08018KT CAVOK 30/22 Q1008
Observed
Feb-22 @ 11:00 UTC
Wind
  • 080° at 18 KTS
Visibility
10,000+ meters
Flight Rules
VFR
Cloud Levels
  • Clear skies
Temperature
30°C / 86°F
Dewpoint
22°C / 72°F
Humidity
62%
Altimeter
29.76" Hg
Pressure
1007.92 hPa
Previous

3 hours ago

HCMM 221000Z 08019KT CAVOK 30/22 Q1009
Observed
Feb-22 @ 10:00 UTC
Wind
  • 080° at 19 KTS
Visibility
10,000+ meters
Flight Rules
VFR
Cloud Levels
  • Clear skies
Temperature
30°C / 86°F
Dewpoint
22°C / 72°F
Humidity
62%
Altimeter
29.79" Hg
Pressure
1008.92 hPa